Time;durP1;ratioP1;P1;durP2;ratioP2;P2;SDS_P1;SDS_P2;PMS_P1;PMS_P2;Temp;Humidity;BMP_temperature;BMP_pressure;BME280_temperature;BME280_humidity;BME280_pressure;Samples;Min_cycle;Max_cycle;Signal;HPM_P1;HPM_P2
2022/04/24 00:02:14;;;;;;;5.13;4.50;;;9.10;99.90;;;;;;5045118;28;20490;-75
2022/04/24 00:04:40;;;;;;;6.38;5.00;;;9.10;99.90;;;;;;5045700;28;20055;-76
2022/04/24 00:07:08;;;;;;;7.30;5.20;;;9.00;99.90;;;;;;5044883;28;20091;-76
2022/04/24 00:09:33;;;;;;;7.68;5.30;;;9.00;99.90;;;;;;5042080;28;20033;-75
2022/04/24 00:12:00;;;;;;;6.78;5.10;;;9.00;99.90;;;;;;5044719;28;20086;-75
2022/04/24 00:14:26;;;;;;;6.20;4.40;;;9.00;99.90;;;;;;5044998;28;20045;-76
2022/04/24 00:16:52;;;;;;;8.38;5.45;;;9.00;99.90;;;;;;5043687;28;20491;-75
2022/04/24 00:19:19;;;;;;;7.50;4.57;;;9.00;99.90;;;;;;5045094;28;20041;-76
2022/04/24 00:21:45;;;;;;;8.25;4.90;;;9.00;99.90;;;;;;5044187;28;20044;-75
2022/04/24 00:24:11;;;;;;;9.07;4.50;;;8.90;99.90;;;;;;5042768;28;20041;-75
2022/04/24 00:26:37;;;;;;;6.85;5.00;;;8.90;99.90;;;;;;5041185;28;20083;-75
2022/04/24 00:29:02;;;;;;;7.60;5.10;;;8.90;99.90;;;;;;5044516;28;20033;-75
2022/04/24 00:31:28;;;;;;;9.02;5.70;;;8.90;99.90;;;;;;5044252;28;20037;-75
2022/04/24 00:33:53;;;;;;;7.10;5.22;;;8.90;99.90;;;;;;5043248;28;20036;-75
2022/04/24 00:36:19;;;;;;;7.75;4.72;;;8.90;99.90;;;;;;5044442;28;20039;-76
2022/04/24 00:38:44;;;;;;;7.60;4.97;;;8.80;99.90;;;;;;5042743;28;20104;-75
2022/04/24 00:41:10;;;;;;;6.60;5.05;;;8.80;99.90;;;;;;5046136;28;20041;-76
2022/04/24 00:43:35;;;;;;;6.28;4.57;;;8.70;99.90;;;;;;5044503;28;20120;-76
2022/04/24 00:46:20;;;;;;;6.45;5.05;;;8.70;99.90;;;;;;5043591;28;20080;-75
2022/04/24 00:48:47;;;;;;;6.95;4.90;;;8.70;99.90;;;;;;5042661;28;20120;-76
2022/04/24 00:51:12;;;;;;;7.32;4.93;;;8.60;99.90;;;;;;5041814;28;20813;-75
2022/04/24 00:53:38;;;;;;;7.38;5.45;;;8.60;99.90;;;;;;5042224;28;20067;-76
2022/04/24 00:56:05;;;;;;;8.75;4.60;;;8.60;99.90;;;;;;5041026;28;20148;-76
2022/04/24 00:58:32;;;;;;;7.53;5.03;;;8.50;99.90;;;;;;5042594;28;20048;-75
2022/04/24 01:00:58;;;;;;;7.35;5.53;;;8.50;99.90;;;;;;5042107;28;20367;-75
2022/04/24 01:03:24;;;;;;;6.43;4.72;;;8.50;99.90;;;;;;5044483;28;20041;-75
2022/04/24 01:05:50;;;;;;;7.78;4.75;;;8.40;99.90;;;;;;5044346;28;20029;-75
2022/04/24 01:08:16;;;;;;;8.65;5.15;;;8.40;99.90;;;;;;5023765;28;20119;-76
2022/04/24 01:10:41;;;;;;;8.27;5.57;;;8.40;99.90;;;;;;5045996;28;20393;-75
2022/04/24 01:13:07;;;;;;;5.43;4.57;;;8.30;99.90;;;;;;5048813;28;20514;-75
2022/04/24 01:15:33;;;;;;;8.00;6.07;;;8.30;99.90;;;;;;5045107;28;20041;-75
2022/04/24 01:18:00;;;;;;;8.55;5.80;;;8.20;99.90;;;;;;5046709;28;20159;-75
2022/04/24 01:20:26;;;;;;;6.65;4.53;;;8.20;99.90;;;;;;5047482;28;20514;-75
2022/04/24 01:22:52;;;;;;;6.43;5.30;;;8.10;99.90;;;;;;5042878;28;20037;-75
2022/04/24 01:25:18;;;;;;;6.65;5.70;;;8.00;99.90;;;;;;5045362;28;20045;-75
2022/04/24 01:27:43;;;;;;;8.27;5.30;;;7.90;99.90;;;;;;5044489;28;20045;-75
2022/04/24 01:30:10;;;;;;;10.38;6.07;;;7.90;99.90;;;;;;5026055;28;20091;-75
2022/04/24 01:32:38;;;;;;;9.55;5.65;;;7.80;99.90;;;;;;5046567;28;20048;-75
2022/04/24 01:35:04;;;;;;;7.35;5.03;;;7.80;99.90;;;;;;5046893;28;20045;-75
2022/04/24 01:37:29;;;;;;;7.10;5.15;;;7.80;99.90;;;;;;5047121;28;20372;-75
2022/04/24 01:39:55;;;;;;;9.05;5.07;;;7.70;99.90;;;;;;5043467;28;20059;-75
2022/04/24 01:42:21;;;;;;;7.35;5.13;;;7.70;99.90;;;;;;5046937;28;20062;-76
2022/04/24 01:44:47;;;;;;;8.68;5.72;;;7.70;99.90;;;;;;5046322;28;20041;-75
2022/04/24 01:47:12;;;;;;;9.75;6.28;;;7.60;99.90;;;;;;5044889;28;20099;-75
2022/04/24 01:49:38;;;;;;;8.75;5.32;;;7.60;99.90;;;;;;5022960;28;20091;-75
2022/04/24 01:52:08;;;;;;;8.07;5.53;;;7.60;99.90;;;;;;5044341;28;20392;-75
2022/04/24 01:54:34;;;;;;;7.57;5.78;;;7.60;99.90;;;;;;5045474;28;20048;-75
2022/04/24 01:57:00;;;;;;;7.70;5.60;;;7.50;99.90;;;;;;5027487;28;20037;-75
2022/04/24 01:59:25;;;;;;;8.90;5.43;;;7.50;99.90;;;;;;5045219;28;20441;-75
2022/04/24 02:01:51;;;;;;;7.18;5.20;;;7.50;99.90;;;;;;5044535;28;20495;-75
2022/04/24 02:04:23;;;;;;;8.18;5.85;;;7.50;99.90;;;;;;5045895;28;20049;-78
2022/04/24 02:06:49;;;;;;;7.72;5.93;;;7.50;99.90;;;;;;5045160;28;20045;-78
2022/04/24 02:09:15;;;;;;;8.32;6.00;;;7.40;99.90;;;;;;5046232;28;20043;-78
2022/04/24 02:11:40;;;;;;;8.25;5.88;;;7.40;99.90;;;;;;5048046;28;20372;-78
2022/04/24 02:14:06;;;;;;;8.43;6.13;;;7.30;99.90;;;;;;5048194;28;20095;-77
2022/04/24 02:16:32;;;;;;;10.18;6.15;;;7.20;99.90;;;;;;5029416;28;20096;-78
2022/04/24 02:18:57;;;;;;;9.30;5.05;;;7.20;99.90;;;;;;5046297;28;20044;-78
2022/04/24 02:21:23;;;;;;;8.07;5.47;;;7.20;99.90;;;;;;5048668;28;20545;-78
2022/04/24 02:23:49;;;;;;;7.10;4.90;;;7.20;99.90;;;;;;5042291;28;20048;-77
2022/04/24 02:26:14;;;;;;;9.55;6.25;;;7.10;99.90;;;;;;5043974;28;20147;-78
2022/04/24 02:28:40;;;;;;;6.65;5.03;;;7.10;99.90;;;;;;5045141;28;20034;-77
2022/04/24 02:31:06;;;;;;;7.50;5.32;;;7.00;99.90;;;;;;5044785;28;20068;-78
2022/04/24 02:33:31;;;;;;;6.80;5.25;;;7.00;99.90;;;;;;5042086;28;20047;-78
2022/04/24 02:35:57;;;;;;;7.50;5.50;;;7.00;99.90;;;;;;5059178;28;20045;-78
2022/04/24 02:38:22;;;;;;;6.38;5.78;;;7.00;99.90;;;;;;5044744;28;20404;-78
2022/04/24 02:40:48;;;;;;;8.10;5.65;;;7.00;99.90;;;;;;5043173;28;20418;-78
2022/04/24 02:43:14;;;;;;;6.88;5.60;;;7.00;99.90;;;;;;5045748;28;20036;-78
2022/04/24 02:45:42;;;;;;;7.75;5.30;;;7.00;99.90;;;;;;5045759;28;20041;-78
2022/04/24 02:48:08;;;;;;;7.32;5.30;;;6.90;99.90;;;;;;5044640;28;20036;-77
2022/04/24 02:50:34;;;;;;;8.25;6.22;;;6.90;99.90;;;;;;5040873;28;20046;-78
2022/04/24 02:53:00;;;;;;;8.18;5.10;;;6.90;99.90;;;;;;5045588;28;20498;-77
2022/04/24 02:55:25;;;;;;;6.75;5.88;;;6.90;99.90;;;;;;5044247;28;20514;-78
2022/04/24 02:57:52;;;;;;;6.70;5.45;;;6.90;99.90;;;;;;5044658;28;20045;-77
2022/04/24 03:00:25;;;;;;;7.32;5.53;;;6.90;99.90;;;;;;5042982;28;20036;-77
2022/04/24 03:02:51;;;;;;;8.80;5.70;;;6.80;99.90;;;;;;5044560;28;20545;-77
2022/04/24 03:05:22;;;;;;;9.13;6.25;;;6.80;99.90;;;;;;5043982;28;20131;-78
2022/04/24 03:07:48;;;;;;;7.45;5.72;;;6.80;99.90;;;;;;5044899;28;20040;-78
2022/04/24 03:10:16;;;;;;;7.35;5.68;;;6.80;99.90;;;;;;5045697;28;20040;-77
2022/04/24 03:12:43;;;;;;;8.05;5.85;;;6.80;99.90;;;;;;5044975;28;20045;-77
2022/04/24 03:15:12;;;;;;;7.28;5.45;;;6.80;99.90;;;;;;5043232;28;20044;-77
2022/04/24 03:17:38;;;;;;;6.72;5.00;;;6.80;99.90;;;;;;5039467;28;20052;-77
2022/04/24 03:20:06;;;;;;;7.68;5.28;;;6.80;99.90;;;;;;5047592;28;20124;-77
2022/04/24 03:22:33;;;;;;;8.45;6.03;;;6.80;99.90;;;;;;5041526;28;20036;-78
2022/04/24 03:24:59;;;;;;;7.07;5.88;;;6.70;99.90;;;;;;5044728;28;20079;-77
2022/04/24 03:27:25;;;;;;;7.22;5.43;;;6.80;99.90;;;;;;5042304;28;20037;-77
2022/04/24 03:29:51;;;;;;;8.20;5.05;;;6.80;99.90;;;;;;5041072;28;20044;-77
2022/04/24 03:32:17;;;;;;;8.43;5.38;;;6.90;99.90;;;;;;5041155;28;20044;-77
2022/04/24 03:34:42;;;;;;;8.95;5.13;;;6.90;99.90;;;;;;5039956;28;20107;-77
2022/04/24 03:37:08;;;;;;;8.90;6.03;;;6.90;99.90;;;;;;5042914;28;20036;-77
2022/04/24 03:39:34;;;;;;;8.13;5.05;;;6.90;99.90;;;;;;5042923;28;20076;-77
2022/04/24 03:41:59;;;;;;;9.70;6.15;;;6.80;99.90;;;;;;5045088;28;20483;-77
2022/04/24 03:44:26;;;;;;;13.10;6.10;;;6.80;99.90;;;;;;5042449;28;20106;-78
2022/04/24 03:46:51;;;;;;;7.63;5.93;;;6.80;99.90;;;;;;5042971;28;20085;-78
2022/04/24 03:49:17;;;;;;;10.65;6.20;;;6.80;99.90;;;;;;5046362;28;20082;-77
2022/04/24 03:51:43;;;;;;;7.55;4.90;;;6.80;99.90;;;;;;5043975;28;20110;-77
2022/04/24 03:54:09;;;;;;;9.35;6.03;;;6.80;99.90;;;;;;5044721;28;20487;-78
2022/04/24 03:56:35;;;;;;;9.52;6.75;;;6.80;99.90;;;;;;5045663;28;20037;-77
2022/04/24 03:59:01;;;;;;;7.45;5.88;;;6.80;99.90;;;;;;5046972;28;20406;-77
2022/04/24 04:01:27;;;;;;;7.32;5.65;;;6.80;99.90;;;;;;5046417;28;20186;-77
2022/04/24 04:03:53;;;;;;;7.45;5.53;;;6.80;99.90;;;;;;5043505;28;20171;-77
2022/04/24 04:06:19;;;;;;;7.47;5.00;;;6.80;99.90;;;;;;5044298;28;20551;-77
2022/04/24 04:08:45;;;;;;;8.20;6.18;;;6.80;99.90;;;;;;5044542;28;20033;-77
2022/04/24 04:11:10;;;;;;;7.45;5.18;;;6.80;99.90;;;;;;5044893;28;20082;-77
2022/04/24 04:13:36;;;;;;;7.40;5.57;;;6.80;99.90;;;;;;5044751;28;20055;-77
2022/04/24 04:16:02;;;;;;;9.00;5.72;;;6.80;99.90;;;;;;5045826;28;20527;-77
2022/04/24 04:18:27;;;;;;;6.93;4.88;;;6.80;99.90;;;;;;5044652;28;20060;-77
2022/04/24 04:20:53;;;;;;;9.05;5.60;;;6.80;99.90;;;;;;5042841;28;20029;-77
2022/04/24 04:23:18;;;;;;;8.70;5.63;;;6.80;99.90;;;;;;5045749;28;20402;-77
2022/04/24 04:25:44;;;;;;;7.13;5.25;;;6.80;99.90;;;;;;5043843;28;20041;-77
2022/04/24 04:28:09;;;;;;;8.25;6.05;;;6.90;99.90;;;;;;5043616;28;20428;-77
2022/04/24 04:30:35;;;;;;;8.05;5.85;;;6.90;99.90;;;;;;5037794;28;20124;-77
2022/04/24 04:33:01;;;;;;;11.20;5.20;;;6.90;99.90;;;;;;5044398;28;20042;-77
2022/04/24 04:35:27;;;;;;;9.23;5.78;;;6.90;99.90;;;;;;5041894;28;20040;-77
2022/04/24 04:37:52;;;;;;;10.00;5.57;;;6.90;99.90;;;;;;5040090;28;20402;-77
2022/04/24 04:40:20;;;;;;;8.75;4.97;;;6.90;99.90;;;;;;5040809;28;20045;-77
2022/04/24 04:42:48;;;;;;;6.10;5.05;;;7.00;99.90;;;;;;5040629;28;20051;-77
2022/04/24 04:45:17;;;;;;;6.18;5.10;;;7.00;99.90;;;;;;5041451;28;20066;-77
2022/04/24 04:47:44;;;;;;;6.00;5.32;;;7.00;99.90;;;;;;5045466;28;20124;-78
2022/04/24 04:50:09;;;;;;;8.85;6.25;;;6.90;99.90;;;;;;5050031;28;20100;-77
2022/04/24 04:52:36;;;;;;;9.75;4.65;;;6.90;99.90;;;;;;5046711;28;20045;-77
2022/04/24 04:55:03;;;;;;;6.68;4.90;;;6.90;99.90;;;;;;5049716;28;20077;-77
2022/04/24 04:57:29;;;;;;;7.78;5.85;;;6.90;99.90;;;;;;5049625;28;20039;-77
2022/04/24 04:59:55;;;;;;;7.63;5.10;;;6.90;99.90;;;;;;5046394;28;20052;-77
2022/04/24 05:02:21;;;;;;;7.80;5.30;;;6.90;99.90;;;;;;5048339;28;20076;-77
2022/04/24 05:04:46;;;;;;;9.68;6.32;;;6.90;99.90;;;;;;5047541;28;20045;-77
2022/04/24 05:07:12;;;;;;;8.40;5.03;;;6.90;99.90;;;;;;5045050;28;20049;-78
2022/04/24 05:09:38;;;;;;;7.85;4.38;;;6.90;99.90;;;;;;5046004;28;20036;-77
2022/04/24 05:12:05;;;;;;;10.98;5.07;;;6.90;99.90;;;;;;5045232;28;20047;-78
2022/04/24 05:14:31;;;;;;;8.20;4.70;;;7.00;99.90;;;;;;5043977;28;20029;-77
2022/04/24 05:16:57;;;;;;;7.85;4.63;;;7.00;99.90;;;;;;5045828;28;20072;-77
2022/04/24 05:19:24;;;;;;;8.73;5.25;;;7.10;99.90;;;;;;5045557;28;20071;-77
2022/04/24 05:21:49;;;;;;;8.60;5.93;;;7.10;99.90;;;;;;5045809;28;20345;-77
2022/04/24 05:24:15;;;;;;;7.63;4.85;;;7.20;99.90;;;;;;5045658;28;20043;-77
2022/04/24 05:26:40;;;;;;;7.68;5.70;;;7.30;99.90;;;;;;5045997;28;20392;-77
2022/04/24 05:29:07;;;;;;;8.48;6.55;;;7.40;99.90;;;;;;5043647;28;20056;-77
2022/04/24 05:31:32;;;;;;;7.70;5.72;;;7.40;99.90;;;;;;5046064;28;20048;-77
2022/04/24 05:33:58;;;;;;;9.20;6.45;;;7.50;99.90;;;;;;5044751;28;20410;-78
2022/04/24 05:36:24;;;;;;;9.65;6.28;;;7.50;99.90;;;;;;5044836;28;20422;-77
2022/04/24 05:38:49;;;;;;;8.18;6.28;;;7.60;99.90;;;;;;5043697;28;20673;-77
2022/04/24 05:41:15;;;;;;;10.15;5.65;;;7.70;99.90;;;;;;5044170;28;20204;-78
2022/04/24 05:43:41;;;;;;;11.18;5.47;;;7.80;99.90;;;;;;5043738;28;20564;-77
2022/04/24 05:46:06;;;;;;;7.45;5.00;;;7.80;99.90;;;;;;5043398;28;20491;-77
2022/04/24 05:48:32;;;;;;;9.32;5.72;;;7.90;99.90;;;;;;5041804;28;20037;-77
2022/04/24 05:50:57;;;;;;;13.55;8.02;;;8.00;99.90;;;;;;5045018;28;20126;-77
2022/04/24 05:53:23;;;;;;;8.25;5.55;;;8.10;99.90;;;;;;5044661;28;20029;-77
2022/04/24 05:55:49;;;;;;;8.43;6.15;;;8.10;99.90;;;;;;5045792;28;20036;-77
2022/04/24 05:58:14;;;;;;;10.82;5.78;;;8.10;99.90;;;;;;5046890;28;20089;-77
2022/04/24 06:00:40;;;;;;;8.20;5.63;;;8.20;99.90;;;;;;5045629;28;20069;-77
2022/04/24 06:03:05;;;;;;;8.35;5.30;;;8.20;99.90;;;;;;5049217;28;20103;-77
2022/04/24 06:05:31;;;;;;;11.63;5.63;;;8.20;99.90;;;;;;5045354;28;20093;-77
2022/04/24 06:07:57;;;;;;;11.07;6.28;;;8.30;99.90;;;;;;5046328;28;20040;-77
2022/04/24 06:10:22;;;;;;;10.45;6.20;;;8.30;99.90;;;;;;5044125;28;20450;-77
2022/04/24 06:12:55;;;;;;;7.70;6.30;;;8.40;99.90;;;;;;5046041;28;20037;-77
2022/04/24 06:15:24;;;;;;;6.47;4.88;;;8.40;99.90;;;;;;5026125;28;20036;-77
2022/04/24 06:17:51;;;;;;;7.55;4.97;;;8.50;99.90;;;;;;5043658;28;20049;-77
2022/04/24 06:20:18;;;;;;;9.82;6.07;;;8.60;99.90;;;;;;5045199;28;20055;-77
2022/04/24 06:22:45;;;;;;;6.93;4.47;;;8.70;99.90;;;;;;5038103;28;20530;-77
2022/04/24 06:25:19;;;;;;;6.90;5.13;;;8.80;99.90;;;;;;5045734;28;20037;-77
2022/04/24 06:27:46;;;;;;;8.45;5.25;;;8.90;99.90;;;;;;5045825;28;20036;-77
2022/04/24 06:30:12;;;;;;;8.57;5.35;;;9.00;99.90;;;;;;5045183;28;20541;-78
2022/04/24 06:32:39;;;;;;;6.93;3.97;;;9.10;99.90;;;;;;5045437;28;20475;-77
2022/04/24 06:35:06;;;;;;;6.55;4.45;;;9.20;99.90;;;;;;5045316;28;20127;-77
2022/04/24 06:37:31;;;;;;;9.75;4.55;;;9.30;99.90;;;;;;5041753;28;20100;-77
2022/04/24 06:39:57;;;;;;;8.27;4.05;;;9.40;99.90;;;;;;5045092;28;20083;-77
2022/04/24 06:42:23;;;;;;;7.40;4.35;;;9.50;99.90;;;;;;5024280;28;20051;-77
2022/04/24 06:44:48;;;;;;;8.98;4.32;;;9.60;99.90;;;;;;5041433;28;20068;-77
2022/04/24 06:47:14;;;;;;;5.28;3.25;;;9.60;99.90;;;;;;5039995;28;20630;-78
2022/04/24 06:49:39;;;;;;;6.32;4.18;;;9.80;99.90;;;;;;5041267;28;20678;-77
2022/04/24 06:52:05;;;;;;;5.10;3.15;;;9.90;99.90;;;;;;5043342;28;20402;-77
2022/04/24 06:54:31;;;;;;;7.05;3.22;;;10.00;99.90;;;;;;5044774;28;20044;-77
2022/04/24 06:57:01;;;;;;;4.78;3.47;;;10.10;99.90;;;;;;5046270;28;20041;-77
2022/04/24 06:59:27;;;;;;;6.47;3.80;;;10.10;99.90;;;;;;5026278;28;20032;-77
2022/04/24 07:01:53;;;;;;;4.72;2.55;;;10.20;99.90;;;;;;5044701;28;20037;-77
2022/04/24 07:04:18;;;;;;;5.38;2.47;;;10.20;99.90;;;;;;5050830;28;20124;-77
2022/04/24 07:06:44;;;;;;;3.58;2.17;;;10.20;99.90;;;;;;5039255;28;20049;-77
2022/04/24 07:09:10;;;;;;;4.50;2.85;;;10.30;99.90;;;;;;5043466;28;20099;-77
2022/04/24 07:11:36;;;;;;;3.65;2.03;;;10.50;99.90;;;;;;5045357;28;20076;-77
2022/04/24 07:14:02;;;;;;;8.05;3.13;;;10.50;99.90;;;;;;5042248;28;20503;-77
2022/04/24 07:16:27;;;;;;;4.22;2.83;;;10.60;99.90;;;;;;5041020;28;20047;-77
2022/04/24 07:18:53;;;;;;;3.72;2.53;;;10.60;99.90;;;;;;5042380;28;20041;-77
2022/04/24 07:21:19;;;;;;;5.32;2.17;;;10.70;99.90;;;;;;5042005;28;20150;-77
2022/04/24 07:23:44;;;;;;;2.40;1.80;;;10.80;99.90;;;;;;5039797;28;20040;-77
2022/04/24 07:26:10;;;;;;;3.80;2.08;;;10.90;99.90;;;;;;5039582;28;20041;-77
2022/04/24 07:28:36;;;;;;;4.85;2.50;;;10.90;99.90;;;;;;5041594;28;20513;-77
2022/04/24 07:31:02;;;;;;;5.10;2.53;;;11.00;99.90;;;;;;5042463;28;20406;-77
2022/04/24 07:33:27;;;;;;;3.40;1.63;;;11.00;99.90;;;;;;5037952;28;20120;-77
2022/04/24 07:35:53;;;;;;;4.32;1.50;;;11.10;99.90;;;;;;5040851;28;20136;-78
2022/04/24 07:38:19;;;;;;;4.07;1.88;;;11.30;99.90;;;;;;5043130;28;20047;-77
2022/04/24 07:40:44;;;;;;;4.82;1.77;;;11.60;99.90;;;;;;5041960;28;20044;-78
2022/04/24 07:43:12;;;;;;;3.35;1.55;;;11.90;99.90;;;;;;5041388;28;20136;-78
2022/04/24 07:45:38;;;;;;;3.97;1.17;;;12.10;99.20;;;;;;5043788;28;20048;-77
2022/04/24 07:48:06;;;;;;;2.92;1.40;;;12.40;97.90;;;;;;5023414;28;20392;-77
2022/04/24 07:50:45;;;;;;;7.28;1.50;;;12.60;95.10;;;;;;5044039;28;20450;-77
2022/04/24 07:53:12;;;;;;;3.33;1.27;;;12.80;90.40;;;;;;5041981;28;20523;-78
2022/04/24 07:55:41;;;;;;;2.67;1.15;;;12.80;89.30;;;;;;5043696;28;20461;-77
2022/04/24 07:58:07;;;;;;;3.88;2.00;;;12.80;87.10;;;;;;5042479;28;20056;-77
2022/04/24 08:00:33;;;;;;;1.98;0.90;;;12.90;86.50;;;;;;5037953;28;20037;-77
2022/04/24 08:03:03;;;;;;;3.72;0.80;;;13.00;85.20;;;;;;5045917;28;20229;-77
2022/04/24 08:05:37;;;;;;;2.42;0.75;;;13.10;83.20;;;;;;5045137;28;20055;-77
2022/04/24 08:08:08;;;;;;;2.13;0.98;;;13.20;82.40;;;;;;5043962;28;20526;-78
2022/04/24 08:10:36;;;;;;;1.98;1.08;;;13.40;83.00;;;;;;5046816;28;20210;-77
2022/04/24 08:13:04;;;;;;;7.32;4.53;;;13.50;81.40;;;;;;5042204;28;20052;-77
2022/04/24 08:15:30;;;;;;;68.05;36.33;;;13.70;79.50;;;;;;5043377;28;20044;-77
2022/04/24 08:17:56;;;;;;;26.60;17.45;;;13.80;78.90;;;;;;5039522;28;20045;-77
2022/04/24 08:20:21;;;;;;;26.08;15.98;;;13.80;77.70;;;;;;5047481;28;20545;-77
2022/04/24 08:22:48;;;;;;;8.70;5.68;;;13.80;77.20;;;;;;5043794;28;20036;-77
2022/04/24 08:25:20;;;;;;;1.95;0.80;;;13.80;76.30;;;;;;5041845;28;20043;-77
2022/04/24 08:27:47;;;;;;;2.42;1.10;;;13.90;76.60;;;;;;5046444;28;20033;-78
2022/04/24 08:30:14;;;;;;;3.63;0.82;;;13.90;77.10;;;;;;5024226;28;20371;-77
2022/04/24 08:32:41;;;;;;;3.22;1.48;;;14.10;76.40;;;;;;5046008;28;20083;-77
2022/04/24 08:35:09;;;;;;;3.50;1.15;;;14.20;74.70;;;;;;5048343;28;20037;-77
2022/04/24 08:37:35;;;;;;;2.72;1.35;;;14.20;74.40;;;;;;5046714;28;20471;-77
2022/04/24 08:40:00;;;;;;;2.30;0.93;;;14.20;74.00;;;;;;5048843;28;20106;-77
2022/04/24 08:42:27;;;;;;;2.15;0.90;;;14.30;74.50;;;;;;5047179;28;20048;-77
2022/04/24 08:44:56;;;;;;;2.17;0.88;;;14.40;74.00;;;;;;5043806;28;20116;-77
2022/04/24 08:47:23;;;;;;;3.08;1.40;;;14.50;74.70;;;;;;5045015;28;20346;-77
2022/04/24 08:49:54;;;;;;;2.35;1.63;;;14.60;72.00;;;;;;5044492;28;20091;-77
2022/04/24 08:52:20;;;;;;;2.22;0.77;;;14.80;72.60;;;;;;5045003;28;20395;-77
2022/04/24 08:54:46;;;;;;;34.13;20.08;;;14.90;73.00;;;;;;5040759;28;20526;-78
2022/04/24 08:57:12;;;;;;;160.32;98.53;;;15.10;71.60;;;;;;5048696;28;20386;-78
2022/04/24 08:59:38;;;;;;;10.65;4.70;;;15.30;72.20;;;;;;5045373;28;20045;-77
2022/04/24 09:02:05;;;;;;;6.25;4.35;;;15.50;71.40;;;;;;5044165;28;20076;-78
2022/04/24 09:04:35;;;;;;;24.73;15.95;;;15.50;69.50;;;;;;5044516;28;20033;-78
2022/04/24 09:07:03;;;;;;;4.00;2.65;;;15.50;69.20;;;;;;5044430;28;20091;-78
2022/04/24 09:09:31;;;;;;;1.80;0.85;;;15.50;69.50;;;;;;5043485;28;20646;-77
2022/04/24 09:12:12;;;;;;;3.47;1.55;;;15.60;68.90;;;;;;5046909;28;20128;-78
2022/04/24 09:14:38;;;;;;;2.85;1.40;;;15.70;65.70;;;;;;5047694;28;20040;-77
2022/04/24 09:17:05;;;;;;;2.97;1.00;;;15.70;67.80;;;;;;5046180;28;20041;-77
2022/04/24 09:19:31;;;;;;;3.92;1.15;;;15.70;67.40;;;;;;5031407;28;20445;-78
2022/04/24 09:22:08;;;;;;;5.72;1.75;;;15.70;67.20;;;;;;5042704;28;20056;-78
2022/04/24 09:24:41;;;;;;;4.50;1.05;;;15.80;66.70;;;;;;5036307;28;20386;-78
2022/04/24 09:27:08;;;;;;;3.03;1.20;;;16.00;64.70;;;;;;5045351;28;20049;-77
2022/04/24 09:29:34;;;;;;;2.28;1.40;;;15.80;64.50;;;;;;5045318;28;20045;-77
2022/04/24 09:32:00;;;;;;;3.28;1.42;;;15.70;65.80;;;;;;5046173;28;20458;-78
2022/04/24 09:34:33;;;;;;;3.25;1.50;;;15.80;66.10;;;;;;5047456;28;20119;-78
2022/04/24 09:37:03;;;;;;;2.13;0.88;;;16.10;65.20;;;;;;5042635;28;20084;-78
2022/04/24 09:39:31;;;;;;;2.75;1.77;;;16.20;63.90;;;;;;5044741;28;20080;-77
2022/04/24 09:42:03;;;;;;;3.20;1.52;;;16.30;64.60;;;;;;5048662;28;20060;-78
2022/04/24 09:44:37;;;;;;;3.75;1.35;;;16.40;65.10;;;;;;5049070;28;20116;-78
2022/04/24 09:47:03;;;;;;;2.22;1.10;;;16.50;65.50;;;;;;5046430;28;20360;-78
2022/04/24 09:49:31;;;;;;;3.30;1.17;;;16.60;65.20;;;;;;5044235;28;20041;-78
2022/04/24 09:51:57;;;;;;;2.72;1.08;;;16.60;64.20;;;;;;5047335;28;20094;-78
2022/04/24 09:54:23;;;;;;;3.85;1.48;;;16.60;64.20;;;;;;5045893;28;20033;-78
2022/04/24 09:56:49;;;;;;;76.97;52.45;;;16.70;64.70;;;;;;5052630;28;20511;-78
2022/04/24 09:59:16;;;;;;;42.85;25.52;;;17.00;64.10;;;;;;5054434;28;20530;-78
2022/04/24 10:01:42;;;;;;;4.15;1.67;;;17.10;62.80;;;;;;5049818;28;20495;-78
2022/04/24 10:04:09;;;;;;;1.77;0.80;;;16.80;62.60;;;;;;5048169;28;20041;-78
2022/04/24 10:06:35;;;;;;;4.85;0.80;;;16.90;62.00;;;;;;5031614;28;20056;-78
2022/04/24 10:09:01;;;;;;;2.85;1.20;;;17.00;62.30;;;;;;5032044;28;20038;-78
2022/04/24 10:11:27;;;;;;;1.77;0.88;;;17.10;61.60;;;;;;5032176;28;20116;-78
2022/04/24 10:14:04;;;;;;;2.47;0.57;;;17.20;61.10;;;;;;5033052;28;20035;-78
2022/04/24 10:16:47;;;;;;;1.52;0.80;;;17.20;58.20;;;;;;5038044;28;20082;-78
2022/04/24 10:20:01;;;;;;;3.05;1.00;;;17.20;59.00;;;;;;5032008;28;20113;-78
2022/04/24 10:22:34;;;;;;;3.50;0.85;;;17.30;59.50;;;;;;5042262;28;20403;-78
2022/04/24 10:25:01;;;;;;;2.47;1.02;;;17.30;59.60;;;;;;5042594;28;20053;-78
2022/04/24 10:27:40;;;;;;;2.55;1.20;;;17.20;59.50;;;;;;5050326;28;20041;-78
2022/04/24 10:30:07;;;;;;;1.95;1.45;;;17.20;58.30;;;;;;5034646;28;20041;-78
2022/04/24 10:32:32;;;;;;;2.53;1.20;;;17.10;59.60;;;;;;5038395;28;20034;-78
2022/04/24 10:35:01;;;;;;;4.90;1.23;;;17.10;59.80;;;;;;5039501;28;20056;-78
2022/04/24 10:37:29;;;;;;;1.48;0.88;;;17.30;60.10;;;;;;5043693;28;20079;-78
2022/04/24 10:40:00;;;;;;;1.55;0.98;;;17.50;58.50;;;;;;5051034;28;20127;-78
2022/04/24 10:42:34;;;;;;;2.90;0.93;;;17.40;57.50;;;;;;5041650;28;20126;-78
2022/04/24 10:45:05;;;;;;;4.10;1.20;;;17.20;58.10;;;;;;5050388;28;20056;-78
2022/04/24 10:47:43;;;;;;;3.35;0.88;;;17.10;57.80;;;;;;5031370;28;20052;-78
2022/04/24 10:50:09;;;;;;;1.45;0.93;;;17.10;57.90;;;;;;5029470;28;20044;-78
2022/04/24 10:52:46;;;;;;;2.10;0.95;;;17.00;59.00;;;;;;5040276;28;20041;-78
2022/04/24 10:55:14;;;;;;;2.42;1.10;;;16.70;57.80;;;;;;5037842;28;20147;-78
2022/04/24 10:57:42;;;;;;;1.45;0.63;;;16.80;59.80;;;;;;5032066;28;20045;-78
2022/04/24 11:00:22;;;;;;;2.78;0.80;;;17.20;58.80;;;;;;5014412;28;20045;-78
2022/04/24 11:02:49;;;;;;;2.90;1.27;;;17.60;58.40;;;;;;5032501;28;20122;-78
2022/04/24 11:05:23;;;;;;;2.15;0.80;;;17.50;56.70;;;;;;5036282;28;20041;-78
2022/04/24 11:08:04;;;;;;;1.40;0.70;;;17.30;57.90;;;;;;5030405;28;20095;-78
2022/04/24 11:10:37;;;;;;;2.63;0.57;;;17.40;56.50;;;;;;5045570;28;20037;-78
2022/04/24 11:13:02;;;;;;;1.45;0.57;;;17.30;57.30;;;;;;5033030;28;20524;-78
2022/04/24 11:15:28;;;;;;;1.63;0.80;;;17.20;56.60;;;;;;5041932;28;20037;-78
2022/04/24 11:17:54;;;;;;;2.75;0.88;;;17.10;56.80;;;;;;5032536;28;20041;-79
2022/04/24 11:20:19;;;;;;;2.05;0.82;;;17.40;56.80;;;;;;5038756;28;20043;-78
2022/04/24 11:22:46;;;;;;;2.78;0.70;;;17.90;57.50;;;;;;5039029;28;20132;-78
2022/04/24 11:25:14;;;;;;;2.58;0.55;;;17.90;55.20;;;;;;5046528;28;20045;-78
2022/04/24 11:27:42;;;;;;;2.88;0.52;;;18.00;56.30;;;;;;5036331;28;20036;-78
2022/04/24 11:30:19;;;;;;;1.85;0.60;;;17.90;54.60;;;;;;5041554;28;20495;-78
2022/04/24 11:32:55;;;;;;;3.42;0.73;;;17.60;54.50;;;;;;5043148;28;20025;-78
2022/04/24 11:35:22;;;;;;;3.30;0.68;;;17.20;54.90;;;;;;5040464;28;20124;-78
2022/04/24 11:37:47;;;;;;;2.13;1.20;;;17.00;56.10;;;;;;5041517;28;20495;-78
2022/04/24 11:40:13;;;;;;;2.97;1.13;;;16.90;56.40;;;;;;5032387;28;20055;-78
2022/04/24 11:42:38;;;;;;;1.40;0.70;;;16.70;56.60;;;;;;5038297;28;20124;-78
2022/04/24 11:50:53;;;;;;;4.00;1.15;;;16.50;57.60;;;;;;5030150;28;20283;-78
2022/04/24 11:53:23;;;;;;;3.13;0.77;;;16.40;57.40;;;;;;5021867;28;20037;-78
2022/04/24 11:56:01;;;;;;;1.17;0.57;;;16.50;58.50;;;;;;5028783;28;20044;-78
2022/04/24 11:58:41;;;;;;;2.58;0.80;;;16.90;58.00;;;;;;5029642;28;20052;-79
2022/04/24 12:01:09;;;;;;;2.85;0.90;;;17.40;56.50;;;;;;5045202;28;20416;-78
2022/04/24 12:03:37;;;;;;;2.30;0.90;;;18.00;57.50;;;;;;5046143;28;20694;-77
2022/04/24 12:06:06;;;;;;;1.52;0.80;;;18.10;56.00;;;;;;5054906;28;20049;-78
2022/04/24 12:08:43;;;;;;;2.90;1.00;;;18.00;55.10;;;;;;5057208;28;20140;-78
2022/04/24 12:11:29;;;;;;;2.42;1.20;;;17.70;54.80;;;;;;5040707;28;20041;-78
2022/04/24 12:14:10;;;;;;;4.80;0.82;;;17.20;54.80;;;;;;5032773;28;20041;-78
2022/04/24 12:16:38;;;;;;;2.08;0.90;;;17.10;56.30;;;;;;5060468;28;20225;-78
2022/04/24 12:19:04;;;;;;;1.88;0.90;;;17.50;55.40;;;;;;5035621;28;20048;-78
2022/04/24 12:21:31;;;;;;;3.08;1.40;;;17.60;55.30;;;;;;5059531;28;20556;-78
2022/04/24 12:23:58;;;;;;;65.45;44.60;;;18.10;56.10;;;;;;5049631;28;20045;-78
2022/04/24 12:26:24;;;;;;;16.30;12.68;;;18.60;57.20;;;;;;5059063;28;20036;-78
2022/04/24 12:28:49;;;;;;;13.77;7.78;;;18.80;55.00;;;;;;5064823;28;20045;-78
2022/04/24 12:31:28;;;;;;;35.45;25.15;;;19.00;55.50;;;;;;5035051;28;20376;-78
2022/04/24 12:33:57;;;;;;;8.77;5.75;;;19.20;54.10;;;;;;5041535;28;20037;-78
2022/04/24 12:36:24;;;;;;;15.77;14.13;;;19.50;55.80;;;;;;5066880;28;20108;-78
2022/04/24 12:38:58;;;;;;;2.35;1.23;;;19.60;53.50;;;;;;5036557;28;20045;-78
2022/04/24 12:41:28;;;;;;;3.58;1.42;;;19.10;52.70;;;;;;5028611;28;20145;-79
2022/04/24 12:44:01;;;;;;;2.78;1.45;;;18.70;54.70;;;;;;5023704;28;20037;-79
2022/04/24 12:46:27;;;;;;;1.92;0.90;;;18.90;55.80;;;;;;5055842;28;20070;-78
2022/04/24 12:48:54;;;;;;;2.90;1.05;;;19.30;55.40;;;;;;5035805;28;20038;-78
2022/04/24 12:51:23;;;;;;;1.92;1.23;;;18.90;54.20;;;;;;5036316;28;20040;-78
2022/04/24 12:53:50;;;;;;;3.38;1.50;;;18.20;54.00;;;;;;5043661;28;20052;-79
2022/04/24 12:56:16;;;;;;;1.92;1.52;;;18.10;56.70;;;;;;5040849;28;20047;-79
2022/04/24 12:58:41;;;;;;;2.70;0.93;;;18.50;56.70;;;;;;5035566;28;20116;-79